createdAt,value
2022-10-03T00:01:07.315Z,100.00
2022-10-03T00:02:21.944Z,100.00
2022-10-03T00:03:47.114Z,100.00
2022-10-03T00:05:16.278Z,100.00
2022-10-03T00:06:42.595Z,100.00
2022-10-03T00:08:21.113Z,100.00
2022-10-03T00:09:56.360Z,100.00
2022-10-03T00:11:22.030Z,100.00
2022-10-03T00:13:02.075Z,100.00
2022-10-03T00:14:24.312Z,100.00
2022-10-03T00:15:29.816Z,100.00
2022-10-03T00:18:06.637Z,100.00
2022-10-03T00:19:29.702Z,100.00
2022-10-03T00:20:38.289Z,100.00
2022-10-03T00:21:49.467Z,100.00
2022-10-03T00:23:15.005Z,100.00
2022-10-03T00:24:23.067Z,100.00
2022-10-03T00:25:37.563Z,100.00
2022-10-03T00:26:52.480Z,100.00
2022-10-03T00:28:02.062Z,100.00
2022-10-03T00:29:14.343Z,100.00
2022-10-03T00:30:22.008Z,100.00
2022-10-03T00:31:39.771Z,100.00
2022-10-03T00:33:03.595Z,100.00
2022-10-03T00:34:18.492Z,100.00
2022-10-03T00:35:42.121Z,100.00
2022-10-03T00:36:50.498Z,100.00
2022-10-03T00:38:22.122Z,100.00
2022-10-03T00:40:02.501Z,100.00
2022-10-03T00:41:34.000Z,100.00
2022-10-03T00:44:50.981Z,100.00
2022-10-03T00:46:17.954Z,100.00
2022-10-03T00:47:36.027Z,100.00
2022-10-03T00:49:07.739Z,100.00
2022-10-03T00:50:45.490Z,100.00
2022-10-03T00:51:56.523Z,100.00
2022-10-03T00:53:08.731Z,100.00
2022-10-03T00:54:26.474Z,100.00
2022-10-03T00:55:50.038Z,100.00
2022-10-03T00:57:28.077Z,100.00
2022-10-03T00:58:45.231Z,100.00
2022-10-03T01:00:23.591Z,100.00
2022-10-03T01:01:32.224Z,100.00
2022-10-03T01:03:00.831Z,100.00
2022-10-03T01:04:26.177Z,100.00
2022-10-03T01:05:40.143Z,100.00
2022-10-03T01:06:48.749Z,100.00
2022-10-03T01:08:17.435Z,100.00
2022-10-03T01:09:28.907Z,100.00
2022-10-03T01:10:49.772Z,100.00
2022-10-03T01:12:11.214Z,100.00
2022-10-03T01:13:39.108Z,100.00
2022-10-03T01:14:56.784Z,100.00
2022-10-03T01:16:02.417Z,100.00
2022-10-03T01:17:41.618Z,100.00
2022-10-03T01:19:02.341Z,100.00
2022-10-03T01:20:24.658Z,100.00
2022-10-03T01:21:40.577Z,100.00
2022-10-03T01:23:01.906Z,100.00
2022-10-03T01:24:11.496Z,100.00
2022-10-03T01:25:37.813Z,100.00
2022-10-03T01:26:47.556Z,100.00
2022-10-03T01:28:16.222Z,100.00
2022-10-03T01:29:21.974Z,100.00
2022-10-03T01:30:24.009Z,100.00
2022-10-03T01:31:46.486Z,100.00
2022-10-03T01:33:01.332Z,100.00
2022-10-03T01:34:06.841Z,100.00
2022-10-03T01:35:31.217Z,100.00
2022-10-03T01:36:39.774Z,100.00
2022-10-03T01:38:11.487Z,100.00
2022-10-03T01:40:47.432Z,100.00
2022-10-03T01:41:55.614Z,100.00
2022-10-03T01:43:22.654Z,100.00
2022-10-03T01:44:44.695Z,100.00
2022-10-03T01:46:07.405Z,100.00
2022-10-03T01:47:32.959Z,100.00
2022-10-03T01:48:58.055Z,100.00
2022-10-03T01:50:03.643Z,100.00
2022-10-03T01:51:14.684Z,100.00
2022-10-03T01:52:22.969Z,100.00
2022-10-03T01:54:01.241Z,100.00
2022-10-03T01:55:22.123Z,100.00
2022-10-03T01:56:30.276Z,100.00
2022-10-03T01:57:47.800Z,100.00
2022-10-03T01:58:56.204Z,100.00
2022-10-03T02:00:17.014Z,100.00
2022-10-03T02:01:22.997Z,100.00
2022-10-03T02:02:43.972Z,100.00
2022-10-03T02:03:58.815Z,100.00
2022-10-03T02:05:09.878Z,100.00
2022-10-03T02:06:33.811Z,100.00
2022-10-03T02:07:51.470Z,100.00
2022-10-03T02:09:13.729Z,100.00
2022-10-03T02:10:44.276Z,100.00
2022-10-03T02:11:52.783Z,100.00
2022-10-03T02:13:13.679Z,100.00
2022-10-03T02:14:34.297Z,100.00
2022-10-03T02:15:50.096Z,100.00
2022-10-03T02:17:13.585Z,100.00
2022-10-03T02:18:52.856Z,100.00
2022-10-03T02:20:04.062Z,100.00
2022-10-03T02:21:25.094Z,100.00
2022-10-03T02:22:36.505Z,100.00
2022-10-03T02:23:44.167Z,100.00
2022-10-03T02:24:52.451Z,100.00
2022-10-03T02:26:15.978Z,100.00
2022-10-03T02:27:41.448Z,100.00
2022-10-03T02:29:06.468Z,100.00
2022-10-03T02:30:14.920Z,100.00
2022-10-03T02:31:38.217Z,100.00
2022-10-03T02:32:53.159Z,100.00
2022-10-03T02:34:17.089Z,100.00
2022-10-03T02:35:41.045Z,100.00
2022-10-03T02:37:03.609Z,100.00
2022-10-03T02:38:15.671Z,100.00
2022-10-03T02:39:37.948Z,100.00
2022-10-03T02:42:28.122Z,100.00
2022-10-03T02:44:06.008Z,100.00
2022-10-03T02:46:49.058Z,100.00
2022-10-03T02:48:08.424Z,100.00
2022-10-03T02:49:35.943Z,100.00
2022-10-03T02:50:59.838Z,100.00
2022-10-03T02:52:31.441Z,100.00
2022-10-03T02:53:50.302Z,100.00
2022-10-03T02:55:12.795Z,100.00
2022-10-03T02:56:30.322Z,100.00
2022-10-03T02:58:04.455Z,100.00
2022-10-03T02:59:42.180Z,100.00
2022-10-03T03:00:59.874Z,100.00
2022-10-03T03:02:21.899Z,100.00
2022-10-03T03:03:27.543Z,100.00
2022-10-03T03:04:35.592Z,100.00
2022-10-03T03:06:00.938Z,100.00
2022-10-03T03:07:23.081Z,100.00
2022-10-03T03:08:48.547Z,100.00
2022-10-03T03:10:03.255Z,100.00
2022-10-03T03:11:32.788Z,100.00
2022-10-03T03:13:10.076Z,100.00
2022-10-03T03:14:15.533Z,100.00
2022-10-03T03:15:41.139Z,100.00
2022-10-03T03:16:55.974Z,100.00
2022-10-03T03:18:07.625Z,100.00
2022-10-03T03:19:13.087Z,100.00
2022-10-03T03:20:25.206Z,100.00
2022-10-03T03:21:43.308Z,100.00
2022-10-03T03:23:11.927Z,100.00
2022-10-03T03:24:20.378Z,100.00
2022-10-03T03:25:35.777Z,100.00
2022-10-03T03:26:57.856Z,100.00
2022-10-03T03:28:12.541Z,100.00
2022-10-03T03:29:21.144Z,100.00
2022-10-03T03:30:26.838Z,100.00
2022-10-03T03:31:46.928Z,100.00
2022-10-03T03:33:07.812Z,100.00
2022-10-03T03:34:29.937Z,100.00
2022-10-03T03:35:38.579Z,100.00
2022-10-03T03:36:44.144Z,100.00
2022-10-03T03:37:55.939Z,100.00
2022-10-03T03:40:31.069Z,100.00
2022-10-03T03:41:48.032Z,100.00
2022-10-03T03:42:56.498Z,100.00
2022-10-03T03:44:33.218Z,100.00
2022-10-03T03:46:07.517Z,100.00
2022-10-03T03:47:31.547Z,100.00
2022-10-03T03:49:06.162Z,100.00
2022-10-03T03:50:30.385Z,100.00
2022-10-03T03:51:44.435Z,100.00
2022-10-03T03:53:06.723Z,100.00
2022-10-03T03:54:32.165Z,100.00
2022-10-03T03:55:41.255Z,100.00
2022-10-03T03:57:06.970Z,100.00
2022-10-03T03:58:15.473Z,100.00
2022-10-03T03:59:39.415Z,100.00
2022-10-03T04:00:59.596Z,100.00
2022-10-03T04:02:14.357Z,100.00
2022-10-03T04:03:32.198Z,100.00
2022-10-03T04:04:52.586Z,100.00
2022-10-03T04:06:10.397Z,100.00
2022-10-03T04:07:41.392Z,100.00
2022-10-03T04:08:50.043Z,100.00
2022-10-03T04:09:55.556Z,100.00
2022-10-03T04:11:24.411Z,100.00
2022-10-03T04:12:59.521Z,100.00
2022-10-03T04:14:17.449Z,100.00
2022-10-03T04:15:52.336Z,100.00
2022-10-03T04:17:07.161Z,100.00
2022-10-03T04:18:41.326Z,100.00
2022-10-03T04:20:09.989Z,100.00
2022-10-03T04:21:33.841Z,100.00
2022-10-03T04:23:00.008Z,100.00
2022-10-03T04:24:27.544Z,100.00
2022-10-03T04:25:38.809Z,100.00
2022-10-03T04:27:02.500Z,100.00
2022-10-03T04:28:29.657Z,100.00
2022-10-03T04:29:47.437Z,100.00
2022-10-03T04:31:09.359Z,100.00
2022-10-03T04:32:36.171Z,100.00
2022-10-03T04:33:51.783Z,100.00
2022-10-03T04:35:16.971Z,100.00
2022-10-03T04:36:31.284Z,100.00
2022-10-03T04:37:53.800Z,100.00
2022-10-03T04:39:09.131Z,100.00
2022-10-03T04:40:27.859Z,100.00
2022-10-03T04:41:43.209Z,100.00
2022-10-03T04:42:54.984Z,100.00
2022-10-03T04:44:22.150Z,100.00
2022-10-03T04:45:52.237Z,100.00
2022-10-03T04:47:03.589Z,100.00
2022-10-03T04:48:32.589Z,100.00
2022-10-03T04:49:44.489Z,100.00
2022-10-03T04:51:02.365Z,100.00
2022-10-03T04:52:17.081Z,100.00
2022-10-03T04:53:48.630Z,100.00
2022-10-03T04:55:17.218Z,100.00
2022-10-03T04:56:39.749Z,100.00
2022-10-03T04:57:48.278Z,100.00
2022-10-03T04:58:55.912Z,100.00
2022-10-03T05:00:14.033Z,100.00
2022-10-03T05:02:48.464Z,100.00
2022-10-03T05:04:00.149Z,100.00
2022-10-03T05:05:28.867Z,100.00
2022-10-03T05:08:45.661Z,100.00
2022-10-03T05:10:10.301Z,100.00
2022-10-03T05:11:14.973Z,100.00
2022-10-03T05:12:26.689Z,100.00
2022-10-03T05:13:53.071Z,100.00
2022-10-03T05:16:20.620Z,100.00
2022-10-03T05:17:26.324Z,100.00
2022-10-03T05:18:47.300Z,100.00
2022-10-03T05:19:53.073Z,100.00
2022-10-03T05:21:05.034Z,100.00
2022-10-03T05:22:29.217Z,100.00
2022-10-03T05:23:52.667Z,100.00
2022-10-03T05:25:15.126Z,100.00
2022-10-03T05:27:38.649Z,100.00
2022-10-03T05:28:47.136Z,100.00
2022-10-03T05:30:04.959Z,100.00
2022-10-03T05:31:36.892Z,100.00
2022-10-03T05:32:42.727Z,100.00
2022-10-03T05:35:21.372Z,100.00
2022-10-03T05:36:28.052Z,100.00
2022-10-03T05:37:52.481Z,100.00
2022-10-03T05:39:01.148Z,100.00
2022-10-03T05:40:22.167Z,100.00
2022-10-03T05:41:31.757Z,100.00
2022-10-03T05:42:52.144Z,100.00
2022-10-03T05:44:05.059Z,100.00
2022-10-03T05:45:26.013Z,100.00
2022-10-03T05:47:01.014Z,100.00
2022-10-03T05:48:30.686Z,100.00
2022-10-03T05:49:45.094Z,100.00
2022-10-03T05:51:09.913Z,100.00
2022-10-03T05:52:30.713Z,100.00
2022-10-03T05:53:55.993Z,100.00
2022-10-03T05:55:22.653Z,100.00
2022-10-03T05:57:00.124Z,100.00
2022-10-03T05:59:34.654Z,100.00
2022-10-03T06:01:15.454Z,100.00
2022-10-03T06:02:39.086Z,100.00
2022-10-03T06:04:06.905Z,100.00
2022-10-03T06:05:21.630Z,100.00
2022-10-03T06:06:42.540Z,100.00
2022-10-03T06:08:05.924Z,100.00
2022-10-03T06:09:35.507Z,100.00
2022-10-03T06:10:47.581Z,100.00
2022-10-03T06:11:59.112Z,100.00
2022-10-03T06:13:07.614Z,100.00
2022-10-03T06:14:16.281Z,100.00
2022-10-03T06:15:44.893Z,100.00
2022-10-03T06:17:10.245Z,100.00
2022-10-03T06:18:18.712Z,100.00
2022-10-03T06:19:48.681Z,100.00
2022-10-03T06:21:28.094Z,100.00
2022-10-03T06:22:45.650Z,100.00
2022-10-03T06:24:00.084Z,100.00
2022-10-03T06:25:37.933Z,100.00
2022-10-03T06:26:46.339Z,100.00
2022-10-03T06:28:16.599Z,100.00
2022-10-03T06:29:47.930Z,100.00
2022-10-03T06:31:15.025Z,100.00
2022-10-03T06:32:37.056Z,100.00
2022-10-03T06:34:00.645Z,100.00
2022-10-03T06:35:30.795Z,100.00
2022-10-03T06:36:57.920Z,100.00
2022-10-03T06:38:21.447Z,100.00
2022-10-03T06:39:58.668Z,100.00
2022-10-03T06:41:25.592Z,100.00
2022-10-03T06:42:52.456Z,100.00
2022-10-03T06:44:01.362Z,100.00
2022-10-03T06:45:32.265Z,100.00
2022-10-03T06:47:02.326Z,100.00
2022-10-03T06:48:14.936Z,100.00
2022-10-03T06:49:50.815Z,100.00
2022-10-03T06:50:59.602Z,100.00
2022-10-03T06:52:10.908Z,100.00
2022-10-03T06:53:34.096Z,100.00
2022-10-03T06:55:02.560Z,100.00
2022-10-03T06:56:33.806Z,100.00
2022-10-03T06:57:45.104Z,100.00
2022-10-03T06:58:56.812Z,100.00
2022-10-03T07:00:05.176Z,100.00
2022-10-03T07:01:27.396Z,100.00
2022-10-03T07:02:57.278Z,100.00
2022-10-03T07:04:31.140Z,100.00
2022-10-03T07:06:03.955Z,100.00
2022-10-03T07:07:38.426Z,100.00
2022-10-03T07:08:48.013Z,100.00
2022-10-03T07:09:53.528Z,100.00
2022-10-03T07:10:59.225Z,100.00
2022-10-03T07:13:45.014Z,100.00
2022-10-03T07:14:56.985Z,100.00
2022-10-03T07:16:36.955Z,100.00
2022-10-03T07:17:48.361Z,100.00
2022-10-03T07:18:59.928Z,100.00
2022-10-03T07:20:31.678Z,100.00
2022-10-03T07:21:46.730Z,100.00
2022-10-03T07:23:28.116Z,100.00
2022-10-03T07:24:45.905Z,100.00
2022-10-03T07:26:09.891Z,100.00
2022-10-03T07:27:45.298Z,100.00
2022-10-03T07:29:22.680Z,100.00
2022-10-03T07:30:27.893Z,100.00
2022-10-03T07:31:53.665Z,100.00
2022-10-03T07:33:22.290Z,100.00
2022-10-03T07:34:45.191Z,100.00
2022-10-03T07:35:56.371Z,100.00
2022-10-03T07:37:08.259Z,100.00
2022-10-03T07:38:37.581Z,100.00
2022-10-03T07:39:52.938Z,100.00
2022-10-03T07:41:23.655Z,100.00
2022-10-03T07:42:29.166Z,100.00
2022-10-03T07:44:05.401Z,100.00
2022-10-03T07:45:32.337Z,100.00
2022-10-03T07:47:03.590Z,100.00
2022-10-03T07:48:42.726Z,100.00
2022-10-03T07:50:13.951Z,100.00
2022-10-03T07:51:45.750Z,100.00
2022-10-03T07:52:57.186Z,100.00
2022-10-03T07:54:12.800Z,100.00
2022-10-03T07:55:34.908Z,100.00
2022-10-03T07:56:53.888Z,100.00
2022-10-03T07:58:15.382Z,100.00
2022-10-03T07:59:38.942Z,100.00
2022-10-03T08:01:08.032Z,100.00
2022-10-03T08:02:34.885Z,100.00
2022-10-03T08:04:02.177Z,100.00
2022-10-03T08:05:16.328Z,100.00
2022-10-03T08:06:37.009Z,100.00
2022-10-03T08:08:16.198Z,100.00
2022-10-03T08:09:48.589Z,100.00
2022-10-03T08:11:04.279Z,100.00
2022-10-03T08:12:32.294Z,100.00
2022-10-03T08:14:08.213Z,100.00
2022-10-03T08:15:29.787Z,100.00
2022-10-03T08:17:01.700Z,100.00
2022-10-03T08:18:13.011Z,100.00
2022-10-03T08:19:38.022Z,100.00
2022-10-03T08:20:49.694Z,100.00
2022-10-03T08:22:07.628Z,100.00
2022-10-03T08:23:33.981Z,100.00
2022-10-03T08:25:07.131Z,100.00
2022-10-03T08:26:13.795Z,100.00
2022-10-03T08:27:36.188Z,100.00
2022-10-03T08:28:45.039Z,100.00
2022-10-03T08:30:03.367Z,100.00
2022-10-03T08:31:31.093Z,100.00
2022-10-03T08:32:48.751Z,100.00
2022-10-03T08:34:13.630Z,100.00
2022-10-03T08:35:52.863Z,100.00
2022-10-03T08:37:13.443Z,100.00
2022-10-03T08:38:35.484Z,100.00
2022-10-03T08:40:06.252Z,100.00
2022-10-03T08:41:28.605Z,100.00
2022-10-03T08:42:49.355Z,100.00
2022-10-03T08:44:06.975Z,100.00
2022-10-03T08:45:46.423Z,100.00
2022-10-03T08:46:52.229Z,100.00
2022-10-03T08:48:25.189Z,100.00
2022-10-03T08:49:46.351Z,100.00
2022-10-03T08:51:24.524Z,100.00
2022-10-03T08:52:43.541Z,100.00
2022-10-03T08:54:23.539Z,100.00
2022-10-03T08:55:35.218Z,100.00
2022-10-03T08:56:51.228Z,100.00
2022-10-03T08:58:05.964Z,100.00
2022-10-03T08:59:15.501Z,100.00
2022-10-03T09:00:45.570Z,100.00
2022-10-03T09:03:54.313Z,100.00
2022-10-03T09:07:18.287Z,100.00
2022-10-03T09:08:30.463Z,100.00
2022-10-03T09:10:03.987Z,100.00
2022-10-03T09:11:18.398Z,100.00
2022-10-03T09:12:30.122Z,100.00
2022-10-03T09:13:59.966Z,100.00
2022-10-03T09:15:12.070Z,100.00
2022-10-03T09:16:26.970Z,100.00
2022-10-03T09:17:41.880Z,100.00
2022-10-03T09:18:59.558Z,100.00
2022-10-03T09:20:17.465Z,100.00
2022-10-03T09:21:42.324Z,100.00
2022-10-03T09:23:06.137Z,100.00
2022-10-03T09:24:17.601Z,100.00
2022-10-03T09:25:30.083Z,99.81
2022-10-03T09:26:44.908Z,98.60
2022-10-03T09:28:13.319Z,97.96
2022-10-03T09:29:34.091Z,97.19
2022-10-03T09:30:49.236Z,95.20
2022-10-03T09:32:01.019Z,94.92
2022-10-03T09:33:21.356Z,94.06
2022-10-03T09:34:43.770Z,94.07
2022-10-03T09:36:04.578Z,94.26
2022-10-03T09:37:22.477Z,94.45
2022-10-03T09:38:48.953Z,93.79
2022-10-03T09:40:14.018Z,92.85
2022-10-03T09:41:31.706Z,92.25
2022-10-03T09:42:49.697Z,93.41
2022-10-03T09:43:58.845Z,92.06
2022-10-03T09:45:24.474Z,90.90
2022-10-03T09:46:41.899Z,90.87
2022-10-03T09:47:47.627Z,91.60
2022-10-03T09:49:03.110Z,91.60
2022-10-03T09:50:43.251Z,90.99
2022-10-03T09:51:54.795Z,90.00
2022-10-03T09:53:06.571Z,90.32
2022-10-03T09:54:38.341Z,89.82
2022-10-03T09:55:44.901Z,88.12
2022-10-03T09:57:10.132Z,87.87
2022-10-03T09:58:16.800Z,87.41
2022-10-03T09:59:32.128Z,86.50
2022-10-03T10:00:56.815Z,85.91
2022-10-03T10:02:05.585Z,86.39
2022-10-03T10:03:29.997Z,82.60
2022-10-03T10:04:55.812Z,83.85
2022-10-03T10:06:14.365Z,82.06
2022-10-03T10:07:35.923Z,83.77
2022-10-03T10:08:58.416Z,85.16
2022-10-03T10:10:25.458Z,82.74
2022-10-03T10:11:39.924Z,84.13
2022-10-03T10:13:14.582Z,82.57
2022-10-03T10:14:41.383Z,83.34
2022-10-03T10:16:15.406Z,83.58
2022-10-03T10:17:26.787Z,82.86
2022-10-03T10:18:58.399Z,81.99
2022-10-03T10:20:09.680Z,81.57
2022-10-03T10:21:29.929Z,81.62
2022-10-03T10:22:53.227Z,81.12
2022-10-03T10:24:11.025Z,81.77
2022-10-03T10:25:23.084Z,81.07
2022-10-03T10:26:58.877Z,81.27
2022-10-03T10:28:16.817Z,80.17
2022-10-03T10:29:28.449Z,81.01
2022-10-03T10:30:52.365Z,80.38
2022-10-03T10:32:21.725Z,81.49
2022-10-03T10:33:43.373Z,79.88
2022-10-03T10:34:58.066Z,80.27
2022-10-03T10:36:26.673Z,80.20
2022-10-03T10:37:47.163Z,79.73
2022-10-03T10:39:15.495Z,80.07
2022-10-03T10:40:40.029Z,79.53
2022-10-03T10:41:57.497Z,79.12
2022-10-03T10:43:18.561Z,79.74
2022-10-03T10:44:47.022Z,79.92
2022-10-03T10:46:09.844Z,80.12
2022-10-03T10:47:25.279Z,79.30
2022-10-03T10:48:33.351Z,77.07
2022-10-03T10:50:11.275Z,77.78
2022-10-03T10:51:16.921Z,78.96
2022-10-03T10:52:28.827Z,77.49
2022-10-03T10:54:00.610Z,76.81
2022-10-03T10:55:09.588Z,75.63
2022-10-03T10:56:44.460Z,75.15
2022-10-03T10:58:07.558Z,76.00
2022-10-03T10:59:42.239Z,76.37
2022-10-03T11:01:22.007Z,76.89
2022-10-03T11:02:49.290Z,75.92
2022-10-03T11:04:10.255Z,75.44
2022-10-03T11:05:49.735Z,74.21
2022-10-03T11:07:13.770Z,74.71
2022-10-03T11:08:52.399Z,75.97
2022-10-03T11:10:20.869Z,75.57
2022-10-03T11:11:52.623Z,75.95
2022-10-03T11:13:15.698Z,75.22
2022-10-03T11:14:36.231Z,74.11
2022-10-03T11:16:15.951Z,74.04
2022-10-03T11:17:39.592Z,74.60
2022-10-03T11:19:10.931Z,74.68
2022-10-03T11:20:33.369Z,75.00
2022-10-03T11:22:03.695Z,74.53
2022-10-03T11:23:26.998Z,74.25
2022-10-03T11:24:56.503Z,74.10
2022-10-03T11:26:24.459Z,74.11
2022-10-03T11:27:48.553Z,74.59
2022-10-03T11:28:57.038Z,75.48
2022-10-03T11:30:28.119Z,74.54
2022-10-03T11:31:49.941Z,75.51
2022-10-03T11:33:24.718Z,75.92
2022-10-03T11:36:19.050Z,73.90
2022-10-03T11:37:58.277Z,74.04
2022-10-03T11:40:28.588Z,75.29
2022-10-03T11:41:52.488Z,74.22
2022-10-03T11:43:17.381Z,74.51
2022-10-03T11:44:22.917Z,73.94
2022-10-03T11:45:34.359Z,74.68
2022-10-03T11:47:00.983Z,72.80
2022-10-03T11:48:06.643Z,72.55
2022-10-03T11:49:30.826Z,72.39
2022-10-03T11:50:40.208Z,71.51
2022-10-03T11:51:53.780Z,72.07
2022-10-03T11:53:05.208Z,72.03
2022-10-03T11:54:30.602Z,71.32
2022-10-03T11:55:44.263Z,71.94
2022-10-03T11:56:52.904Z,71.94
2022-10-03T11:58:29.800Z,74.27
2022-10-03T11:59:35.909Z,72.63
2022-10-03T12:00:41.546Z,72.54
2022-10-03T12:02:06.209Z,71.69
2022-10-03T12:03:26.974Z,72.02
2022-10-03T12:04:49.260Z,73.00
2022-10-03T12:05:58.162Z,72.42
2022-10-03T12:07:03.892Z,72.24
2022-10-03T12:08:18.792Z,71.11
2022-10-03T12:09:30.456Z,70.93
2022-10-03T12:10:49.235Z,70.65
2022-10-03T12:12:01.033Z,69.97
2022-10-03T12:13:06.825Z,69.53
2022-10-03T12:14:35.228Z,69.98
2022-10-03T12:15:49.922Z,69.26
2022-10-03T12:17:13.158Z,69.57
2022-10-03T12:18:35.620Z,69.91
2022-10-03T12:19:50.626Z,69.95
2022-10-03T12:21:11.380Z,70.30
2022-10-03T12:22:40.085Z,70.62
2022-10-03T12:23:59.499Z,72.80
2022-10-03T12:25:23.174Z,71.29
2022-10-03T12:26:52.824Z,71.30
2022-10-03T12:28:11.303Z,72.30
2022-10-03T12:29:17.262Z,74.92
2022-10-03T12:30:21.005Z,72.89
2022-10-03T12:31:31.086Z,72.27
2022-10-03T12:32:50.107Z,71.76
2022-10-03T12:34:25.387Z,71.43
2022-10-03T12:35:47.731Z,72.84
2022-10-03T12:37:23.535Z,72.86
2022-10-03T12:38:38.845Z,72.98
2022-10-03T12:39:53.582Z,72.55
2022-10-03T12:41:15.097Z,72.38
2022-10-03T12:42:26.875Z,72.74
2022-10-03T12:43:44.708Z,72.98
2022-10-03T12:44:55.751Z,73.51
2022-10-03T12:46:01.893Z,71.79
2022-10-03T12:47:24.367Z,71.56
2022-10-03T12:48:31.419Z,72.25
2022-10-03T12:49:39.718Z,71.75
2022-10-03T12:50:51.442Z,71.96
2022-10-03T12:52:00.635Z,71.75
2022-10-03T12:53:21.206Z,72.61
2022-10-03T12:54:35.747Z,73.05
2022-10-03T12:55:42.357Z,72.77
2022-10-03T12:56:50.689Z,73.22
2022-10-03T12:57:59.635Z,73.68
2022-10-03T13:00:24.631Z,73.48
2022-10-03T13:01:49.194Z,73.36
2022-10-03T13:03:11.736Z,74.12
2022-10-03T13:04:40.115Z,75.69
2022-10-03T13:05:58.293Z,77.73
2022-10-03T13:07:24.009Z,83.66
2022-10-03T13:08:50.860Z,88.81
2022-10-03T13:10:06.561Z,91.47
2022-10-03T13:11:24.409Z,93.68
2022-10-03T13:12:33.330Z,93.28
2022-10-03T13:13:55.787Z,94.85
2022-10-03T13:15:21.158Z,94.99
2022-10-03T13:17:00.556Z,94.20
2022-10-03T13:18:25.412Z,93.46
2022-10-03T13:19:37.005Z,91.66
2022-10-03T13:20:42.685Z,89.53
2022-10-03T13:22:15.758Z,89.97
2022-10-03T13:24:49.024Z,89.67
2022-10-03T13:25:57.038Z,88.75
2022-10-03T13:27:25.340Z,88.42
2022-10-03T13:28:52.731Z,89.19
2022-10-03T13:30:01.462Z,88.62
2022-10-03T13:31:09.942Z,87.19
2022-10-03T13:32:33.781Z,87.26
2022-10-03T13:33:45.440Z,87.54
2022-10-03T13:35:02.726Z,87.26
2022-10-03T13:36:25.092Z,86.67
2022-10-03T13:37:33.738Z,86.05
2022-10-03T13:39:12.954Z,86.01
2022-10-03T13:40:18.180Z,85.66
2022-10-03T13:41:32.322Z,84.73
2022-10-03T13:42:47.524Z,83.10
2022-10-03T13:43:53.370Z,83.72
2022-10-03T13:44:58.826Z,84.35
2022-10-03T13:46:04.707Z,84.58
2022-10-03T13:47:19.309Z,83.09
2022-10-03T13:48:24.805Z,82.75
2022-10-03T13:49:30.282Z,82.66
2022-10-03T13:51:00.646Z,83.30
2022-10-03T13:52:23.777Z,85.07
2022-10-03T13:53:42.288Z,87.98
2022-10-03T13:55:13.873Z,88.71
2022-10-03T13:56:37.193Z,89.65
2022-10-03T13:57:45.933Z,88.79
2022-10-03T13:59:08.967Z,89.61
2022-10-03T14:00:17.463Z,91.70
2022-10-03T14:01:35.901Z,90.17
2022-10-03T14:03:06.247Z,88.96
2022-10-03T14:04:30.086Z,88.23
2022-10-03T14:05:56.732Z,85.44
2022-10-03T14:07:11.576Z,86.04
2022-10-03T14:08:34.554Z,85.29
2022-10-03T14:10:00.524Z,84.29
2022-10-03T14:12:55.391Z,83.40
2022-10-03T14:14:02.117Z,82.74
2022-10-03T14:15:38.786Z,82.53
2022-10-03T14:16:45.416Z,83.76
2022-10-03T14:17:53.754Z,83.38
2022-10-03T14:19:05.179Z,83.19
2022-10-03T14:20:30.629Z,83.24
2022-10-03T14:21:56.208Z,83.35
2022-10-03T14:23:11.268Z,82.98
2022-10-03T14:24:37.415Z,82.49
2022-10-03T14:25:49.082Z,83.15
2022-10-03T14:27:10.009Z,83.26
2022-10-03T14:28:22.317Z,83.23
2022-10-03T14:29:53.017Z,82.55
2022-10-03T14:32:48.104Z,82.75
2022-10-03T14:33:56.704Z,82.52
2022-10-03T14:35:25.202Z,82.18
2022-10-03T14:36:58.262Z,82.22
2022-10-03T14:38:20.897Z,81.87
2022-10-03T14:39:41.617Z,81.90
2022-10-03T14:40:49.783Z,81.86
2022-10-03T14:42:04.984Z,81.65
2022-10-03T14:43:30.271Z,81.83
2022-10-03T14:44:38.754Z,81.69
2022-10-03T14:45:47.425Z,81.07
2022-10-03T14:46:57.417Z,80.87
2022-10-03T14:48:06.051Z,80.92
2022-10-03T14:49:31.213Z,80.86
2022-10-03T14:50:22.784Z,80.43
2022-10-03T14:51:40.251Z,80.69
2022-10-03T14:53:01.780Z,80.46
2022-10-03T14:54:07.418Z,80.57
2022-10-03T14:55:17.945Z,80.17
2022-10-03T14:56:22.408Z,80.16
2022-10-03T14:57:52.890Z,80.13
2022-10-03T14:58:46.185Z,79.29
2022-10-03T14:59:52.020Z,78.76
2022-10-03T15:01:09.903Z,79.16
2022-10-03T15:02:27.761Z,79.29
2022-10-03T15:03:34.131Z,78.77
2022-10-03T15:04:39.621Z,78.54
2022-10-03T15:05:58.105Z,78.38
2022-10-03T15:07:01.935Z,77.93
2022-10-03T15:08:09.846Z,78.22
2022-10-03T15:09:18.353Z,78.11
2022-10-03T15:10:23.751Z,77.64
2022-10-03T15:11:35.520Z,77.45
2022-10-03T15:12:41.117Z,77.31
2022-10-03T15:13:52.670Z,77.44
2022-10-03T15:14:58.254Z,77.43
2022-10-03T15:16:02.134Z,77.54
2022-10-03T15:17:16.107Z,77.18
2022-10-03T15:18:21.839Z,76.97
2022-10-03T15:19:42.550Z,77.60
2022-10-03T15:20:46.967Z,77.81
2022-10-03T15:21:52.525Z,78.01
2022-10-03T15:22:57.943Z,78.18
2022-10-03T15:24:07.325Z,78.19
2022-10-03T15:25:15.699Z,78.42
2022-10-03T15:26:20.633Z,78.46
2022-10-03T15:27:26.592Z,78.71
2022-10-03T15:28:46.254Z,78.39
2022-10-03T15:30:00.955Z,78.80
2022-10-03T15:31:12.551Z,79.00
2022-10-03T15:32:21.071Z,79.14
2022-10-03T15:33:32.221Z,79.15
2022-10-03T15:34:40.690Z,79.24
2022-10-03T15:35:46.288Z,79.20
2022-10-03T15:36:55.191Z,79.36
2022-10-03T15:38:12.673Z,79.13
2022-10-03T15:39:29.993Z,78.99
2022-10-03T15:40:36.753Z,79.18
2022-10-03T15:41:54.458Z,79.18
2022-10-03T15:43:16.596Z,79.41
2022-10-03T15:44:25.013Z,79.28
2022-10-03T15:45:29.798Z,78.84
2022-10-03T15:46:35.554Z,78.78
2022-10-03T15:47:43.446Z,78.98
2022-10-03T15:48:49.486Z,78.36
2022-10-03T15:49:57.720Z,78.35
2022-10-03T15:51:02.554Z,78.32
2022-10-03T15:52:24.199Z,78.19
2022-10-03T15:53:36.668Z,78.12
2022-10-03T15:54:38.337Z,77.81
2022-10-03T15:55:43.965Z,78.08
2022-10-03T15:56:49.562Z,78.16
2022-10-03T15:57:55.062Z,77.89
2022-10-03T15:59:03.397Z,77.81
2022-10-03T16:00:06.994Z,77.82
2022-10-03T16:01:23.534Z,77.97
2022-10-03T16:02:32.439Z,77.25
2022-10-03T16:03:48.355Z,77.28
2022-10-03T16:04:55.140Z,77.06
2022-10-03T16:06:12.830Z,77.25
2022-10-03T16:07:43.066Z,77.26
2022-10-03T16:09:00.924Z,77.24
2022-10-03T16:10:22.689Z,76.45
2022-10-03T16:11:34.336Z,76.70
2022-10-03T16:12:58.270Z,76.90
2022-10-03T16:14:19.179Z,77.23
2022-10-03T16:15:27.657Z,77.01
2022-10-03T16:16:48.589Z,76.94
2022-10-03T16:18:03.895Z,76.90
2022-10-03T16:20:35.931Z,76.81
2022-10-03T16:21:47.692Z,76.99
2022-10-03T16:22:53.491Z,77.07
2022-10-03T16:23:59.077Z,76.84
2022-10-03T16:25:16.525Z,76.61
2022-10-03T16:26:23.474Z,76.39
2022-10-03T16:27:29.280Z,75.97
2022-10-03T16:29:51.402Z,76.33
2022-10-03T16:31:06.528Z,75.98
2022-10-03T16:32:12.145Z,76.14
2022-10-03T16:35:55.810Z,75.95
2022-10-03T16:37:00.818Z,75.98
2022-10-03T16:38:06.986Z,75.98
2022-10-03T16:39:12.593Z,76.13
2022-10-03T16:40:20.227Z,75.83
2022-10-03T16:41:25.454Z,75.46
2022-10-03T16:42:31.426Z,75.39
2022-10-03T16:43:35.405Z,75.52
2022-10-03T16:44:40.884Z,76.22
2022-10-03T16:45:48.022Z,76.60
2022-10-03T16:46:57.745Z,76.71
2022-10-03T16:48:04.310Z,77.15
2022-10-03T16:50:28.943Z,78.62
2022-10-03T16:52:00.660Z,79.24
2022-10-03T16:53:06.572Z,79.00
2022-10-03T16:54:20.788Z,79.94
2022-10-03T16:55:34.630Z,81.32
2022-10-03T16:56:48.782Z,83.12
2022-10-03T16:58:10.816Z,84.68
2022-10-03T16:59:15.982Z,85.81
2022-10-03T17:00:33.778Z,86.58
2022-10-03T17:01:46.164Z,88.17
2022-10-03T17:02:49.538Z,89.64
2022-10-03T17:04:07.081Z,90.09
2022-10-03T17:05:14.535Z,90.49
2022-10-03T17:07:39.226Z,92.12
2022-10-03T17:08:44.598Z,93.29
2022-10-03T17:09:49.306Z,94.47
2022-10-03T17:10:57.447Z,94.87
2022-10-03T17:12:02.205Z,95.72
2022-10-03T17:13:16.750Z,96.45
2022-10-03T17:14:22.388Z,96.55
2022-10-03T17:15:27.898Z,96.91